Time;durP1;ratioP1;P1;durP2;ratioP2;P2;SDS_P1;SDS_P2;PMS_P1;PMS_P2;Temp;Humidity;BMP_temperature;BMP_pressure;BME280_temperature;BME280_humidity;BME280_pressure;Samples;Min_cycle;Max_cycle;Signal;HPM_P1;HPM_P2
2022/03/04 00:00:32;;;;;;;;;65.75;52.25;;;;;12.62;53.34;101170.19;5060705;28;45184;-53
2022/03/04 00:02:57;;;;;;;;;62.50;50.00;;;;;12.60;53.13;101171.97;5060440;28;45429;-50
2022/03/04 00:05:22;;;;;;;;;63.75;50.00;;;;;12.55;53.19;101172.03;5060539;28;45364;-50
2022/03/04 00:07:48;;;;;;;;;62.00;48.50;;;;;12.55;53.16;101169.41;5058999;28;45289;-52
2022/03/04 00:10:13;;;;;;;;;63.00;49.75;;;;;12.52;53.35;101177.38;5060384;28;45495;-49
2022/03/04 00:12:38;;;;;;;;;68.00;52.50;;;;;12.50;53.17;101181.78;5060256;28;46280;-53
2022/03/04 00:15:04;;;;;;;;;65.50;52.75;;;;;12.48;53.23;101178.31;5060582;28;45273;-53
2022/03/04 00:17:30;;;;;;;;;61.75;48.00;;;;;12.45;53.18;101171.34;5060565;28;45477;-53
2022/03/04 00:19:55;;;;;;;;;67.00;52.00;;;;;12.43;53.13;101164.34;5060394;28;45307;-49
2022/03/04 00:22:21;;;;;;;;;63.50;50.25;;;;;12.41;53.37;101171.41;5060297;28;46012;-53
2022/03/04 00:24:46;;;;;;;;;66.50;52.25;;;;;12.41;53.27;101168.75;5060026;28;45332;-53
2022/03/04 00:27:12;;;;;;;;;63.75;50.75;;;;;12.39;53.04;101155.59;5060404;28;45354;-53
2022/03/04 00:29:37;;;;;;;;;65.00;51.25;;;;;12.35;53.50;101164.44;5058834;28;45334;-53
2022/03/04 00:32:03;;;;;;;;;66.25;51.00;;;;;12.35;53.15;101160.06;5059935;28;45469;-52
2022/03/04 00:34:28;;;;;;;;;54.25;44.75;;;;;12.34;53.32;101162.72;5061326;28;45325;-49
2022/03/04 00:36:54;;;;;;;;;64.50;50.25;;;;;12.34;53.19;101162.72;5061051;28;46031;-51
2022/03/04 00:39:19;;;;;;;;;62.50;50.75;;;;;12.34;53.50;101170.63;5059864;28;45332;-51
2022/03/04 00:41:44;;;;;;;;;67.00;49.75;;;;;12.34;53.33;101163.56;5059763;28;45994;-53
2022/03/04 00:44:10;;;;;;;;;64.25;49.75;;;;;12.31;53.30;101153.09;5060209;28;45197;-53
2022/03/04 00:46:36;;;;;;;;;62.50;48.25;;;;;12.33;53.29;101156.56;5058287;28;45418;-52
2022/03/04 00:49:03;;;;;;;;;65.00;50.25;;;;;12.32;53.40;101154.81;5058902;28;45270;-50
2022/03/04 00:51:28;;;;;;;;;62.50;47.75;;;;;12.31;53.46;101152.22;5059722;28;45380;-51
2022/03/04 00:53:54;;;;;;;;;65.25;50.75;;;;;12.33;53.57;101153.06;5059540;28;45288;-52
2022/03/04 00:56:19;;;;;;;;;61.75;49.25;;;;;12.32;53.58;101149.53;5059954;28;45434;-50
2022/03/04 00:58:44;;;;;;;;;65.50;50.00;;;;;12.31;53.56;101150.47;5059980;28;45441;-53
2022/03/04 01:01:10;;;;;;;;;65.25;53.00;;;;;12.31;53.60;101153.09;5058292;28;46527;-53
2022/03/04 01:03:36;;;;;;;;;59.00;48.00;;;;;12.32;53.33;101160.09;5058421;28;45372;-52
2022/03/04 01:06:03;;;;;;;;;63.00;49.75;;;;;12.30;53.69;101159.25;5059746;28;45462;-52
2022/03/04 01:08:28;;;;;;;;;68.00;52.00;;;;;12.29;53.51;101152.22;5058054;28;45475;-53
2022/03/04 01:10:54;;;;;;;;;64.00;51.00;;;;;12.29;53.58;101161.88;5057905;28;47300;-51
2022/03/04 01:13:21;;;;;;;;;65.25;51.25;;;;;12.28;53.67;101161.03;5059624;28;45308;-52
2022/03/04 01:15:47;;;;;;;;;67.00;53.75;;;;;12.27;53.45;101161.91;5059627;28;45287;-52
2022/03/04 01:18:12;;;;;;;;;62.75;48.25;;;;;12.25;53.59;101162.84;5059784;28;45496;-53
2022/03/04 01:20:37;;;;;;;;;63.25;47.00;;;;;12.24;53.50;101161.97;5059356;28;45333;-52
2022/03/04 01:23:03;;;;;;;;;66.50;51.50;;;;;12.23;53.69;101168.13;5059455;28;45581;-51
2022/03/04 01:25:28;;;;;;;;;65.00;50.50;;;;;12.21;53.46;101163.78;5059317;28;46027;-52
2022/03/04 01:27:54;;;;;;;;;66.00;52.25;;;;;12.20;53.42;101170.81;5059602;28;45319;-52
2022/03/04 01:30:19;;;;;;;;;65.50;51.75;;;;;12.18;53.09;101169.97;5059272;28;45454;-52
2022/03/04 01:32:46;;;;;;;;;59.50;48.25;;;;;12.17;53.56;101157.69;5058183;28;45285;-50
2022/03/04 01:35:12;;;;;;;;;65.25;50.25;;;;;12.17;53.49;101158.53;5062768;28;45541;-51
2022/03/04 01:37:39;;;;;;;;;73.00;57.00;;;;;12.15;53.52;101159.44;5059123;28;45398;-49
2022/03/04 01:40:06;;;;;;;;;66.25;53.00;;;;;12.14;53.53;101158.59;5058955;28;45257;-51
2022/03/04 01:42:31;;;;;;;;;70.75;55.00;;;;;12.07;53.24;101145.53;5059281;28;45260;-49
2022/03/04 01:44:57;;;;;;;;;69.00;53.25;;;;;12.12;53.51;101154.25;5059268;28;45311;-53
2022/03/04 01:47:22;;;;;;;;;70.75;51.50;;;;;12.12;53.48;101159.50;5059330;28;45301;-51
2022/03/04 01:49:47;;;;;;;;;66.25;52.25;;;;;12.11;53.46;101163.03;5057596;28;47249;-52
2022/03/04 01:52:13;;;;;;;;;67.75;53.00;;;;;12.10;53.67;101156.91;5057825;28;45256;-51
2022/03/04 01:54:38;;;;;;;;;63.75;50.00;;;;;12.09;53.45;101160.44;5057586;28;45360;-52
2022/03/04 01:57:04;;;;;;;;;67.75;52.25;;;;;12.08;53.67;101157.81;5060115;28;45557;-50
2022/03/04 01:59:30;;;;;;;;;64.50;51.75;;;;;12.03;53.62;101149.97;5062387;28;46988;-51
2022/03/04 02:01:55;;;;;;;;;66.50;52.25;;;;;12.03;53.83;101149.97;5062596;28;45347;-51
2022/03/04 02:04:22;;;;;;;;;64.75;52.00;;;;;12.01;53.63;101150.00;5062529;28;45438;-51
2022/03/04 02:06:48;;;;;;;;;65.75;52.25;;;;;12.01;53.72;101141.22;5062581;28;45449;-50
2022/03/04 02:09:13;;;;;;;;;64.75;51.25;;;;;11.99;53.77;101141.22;5061846;28;46130;-53
2022/03/04 02:11:41;;;;;;;;;65.50;50.75;;;;;11.97;53.65;101134.25;5061060;28;45277;-51
2022/03/04 02:14:07;;;;;;;;;67.00;52.25;;;;;11.96;53.72;101133.38;5062323;28;45236;-52
2022/03/04 02:16:44;;;;;;;;;66.00;50.50;;;;;11.95;53.65;101130.72;5062350;28;45247;-52
2022/03/04 02:19:09;;;;;;;;;62.75;50.50;;;;;11.94;53.67;101124.59;5062126;28;45284;-50
2022/03/04 02:21:35;;;;;;;;;61.00;49.75;;;;;11.93;53.66;101120.22;5062192;28;45396;-52
2022/03/04 02:24:02;;;;;;;;;64.50;51.25;;;;;11.92;53.81;101117.59;5060584;28;45356;-49
2022/03/04 02:26:27;;;;;;;;;64.25;50.00;;;;;11.91;53.83;101123.75;5062138;28;45322;-49
2022/03/04 02:28:53;;;;;;;;;62.25;48.75;;;;;11.90;53.77;101125.53;5062081;28;46156;-49
2022/03/04 02:31:21;;;;;;;;;67.75;51.25;;;;;11.90;53.69;101120.28;5062021;28;45196;-51
2022/03/04 02:33:48;;;;;;;;;62.00;50.25;;;;;11.89;53.88;101121.16;5062110;28;45321;-49
2022/03/04 02:36:14;;;;;;;;;66.00;50.25;;;;;11.87;53.84;101121.19;5065373;28;45517;-51
2022/03/04 02:38:40;;;;;;;;;65.25;51.25;;;;;11.88;53.84;101127.31;5060326;28;47089;-51
2022/03/04 02:41:06;;;;;;;;;59.25;49.50;;;;;11.85;53.96;101128.22;5061927;28;45411;-53
2022/03/04 02:43:31;;;;;;;;;65.25;50.75;;;;;11.83;53.84;101130.00;5060636;28;45339;-51
2022/03/04 02:45:57;;;;;;;;;68.50;53.25;;;;;11.80;53.88;101121.28;5061971;28;45391;-52
2022/03/04 02:48:23;;;;;;;;;62.50;50.25;;;;;11.81;53.84;101129.16;5061731;28;46139;-54
2022/03/04 02:50:48;;;;;;;;;66.75;53.75;;;;;11.80;53.79;101129.19;5061905;28;45284;-52
2022/03/04 02:53:14;;;;;;;;;71.00;55.25;;;;;11.78;53.81;101128.31;5061507;28;45562;-50
2022/03/04 02:55:39;;;;;;;;;67.00;53.25;;;;;11.77;53.79;101127.44;5061847;28;45212;-50
2022/03/04 02:58:05;;;;;;;;;67.75;53.50;;;;;11.77;53.85;101134.47;5061618;28;46715;-50
2022/03/04 03:00:31;;;;;;;;;66.75;52.75;;;;;11.74;53.73;101126.63;5061724;28;45360;-51
2022/03/04 03:02:56;;;;;;;;;64.25;51.25;;;;;11.74;53.85;101131.91;5061693;28;45308;-50
2022/03/04 03:05:22;;;;;;;;;65.75;52.00;;;;;11.71;53.96;101128.41;5060413;28;45244;-48
2022/03/04 03:07:47;;;;;;;;;72.33;56.00;;;;;11.72;53.83;101131.91;5060903;28;45316;-53
2022/03/04 03:10:13;;;;;;;;;70.75;52.75;;;;;11.69;53.69;101131.94;5060058;28;45742;-50
2022/03/04 03:12:40;;;;;;;;;66.25;52.75;;;;;11.68;53.84;101136.34;5061481;28;45542;-52
2022/03/04 03:15:06;;;;;;;;;60.75;48.50;;;;;11.68;53.96;101140.72;5061454;28;45351;-49
2022/03/04 03:17:32;;;;;;;;;66.25;53.75;;;;;11.65;53.90;101131.09;5061125;28;46313;-51
2022/03/04 03:19:57;;;;;;;;;65.50;51.25;;;;;11.64;54.06;101134.63;5061245;28;45339;-50
2022/03/04 03:22:23;;;;;;;;;65.50;51.25;;;;;11.60;53.92;101132.94;5059982;28;45887;-49
2022/03/04 03:24:48;;;;;;;;;64.50;49.50;;;;;11.57;53.93;101129.47;5060936;28;45359;-50
2022/03/04 03:27:14;;;;;;;;;69.75;53.00;;;;;11.57;53.96;101127.69;5060843;28;46865;-49
2022/03/04 03:29:40;;;;;;;;;67.75;51.75;;;;;11.55;53.92;101134.75;5059815;28;45264;-49
2022/03/04 03:32:06;;;;;;;;;66.25;51.75;;;;;11.53;53.84;101126.88;5061016;28;45434;-49
2022/03/04 03:34:32;;;;;;;;;68.75;52.75;;;;;11.53;53.91;101139.16;5062515;28;45203;-51
2022/03/04 03:36:57;;;;;;;;;67.00;52.75;;;;;11.50;53.90;101134.78;5062074;28;45264;-50
2022/03/04 03:39:23;;;;;;;;;65.25;50.50;;;;;11.51;54.12;101139.19;5060777;28;45252;-48
2022/03/04 03:41:48;;;;;;;;;64.25;51.50;;;;;11.50;54.11;101134.78;5061020;28;45314;-49
2022/03/04 03:44:13;;;;;;;;;66.75;51.25;;;;;11.49;54.20;101133.06;5061004;28;45318;-49
2022/03/04 03:46:39;;;;;;;;;68.50;52.00;;;;;11.49;54.02;101137.44;5060626;28;45963;-49
2022/03/04 03:49:05;;;;;;;;;63.50;50.00;;;;;11.47;54.04;101140.09;5060960;28;45403;-50
2022/03/04 03:51:30;;;;;;;;;65.50;52.75;;;;;11.44;54.12;101134.88;5060960;28;45583;-50
2022/03/04 03:53:56;;;;;;;;;65.75;50.75;;;;;11.45;54.01;101144.50;5060516;28;45255;-53
2022/03/04 03:56:21;;;;;;;;;66.25;52.50;;;;;11.46;54.16;101148.00;5060661;28;45303;-50
2022/03/04 03:58:46;;;;;;;;;69.50;53.25;;;;;11.45;54.07;101143.66;5060995;28;45334;-51
2022/03/04 04:01:12;;;;;;;;;64.25;50.50;;;;;11.43;54.09;101146.28;5060880;28;45296;-53
2022/03/04 04:03:37;;;;;;;;;65.50;49.25;;;;;11.43;54.16;101143.66;5059473;28;45474;-51
2022/03/04 04:06:03;;;;;;;;;69.50;54.50;;;;;11.41;54.17;101136.66;5060441;28;46005;-53
2022/03/04 04:08:28;;;;;;;;;64.75;50.75;;;;;11.40;54.11;101142.84;5060473;28;45287;-53
2022/03/04 04:10:54;;;;;;;;;65.50;51.25;;;;;11.40;53.98;101150.72;5059107;28;45297;-50
2022/03/04 04:13:19;;;;;;;;;65.75;53.00;;;;;11.40;54.15;101163.88;5059211;28;45301;-50
2022/03/04 04:15:45;;;;;;;;;58.00;47.00;;;;;11.36;54.28;101163.03;5060332;28;46401;-49
2022/03/04 04:18:10;;;;;;;;;66.75;53.00;;;;;11.37;54.17;101160.38;5060489;28;45267;-54
2022/03/04 04:20:36;;;;;;;;;65.50;50.50;;;;;11.37;54.04;101162.13;5059686;28;45339;-52
2022/03/04 04:23:01;;;;;;;;;66.25;51.00;;;;;11.36;54.27;101166.53;5060326;28;45520;-51
2022/03/04 04:25:27;;;;;;;;;66.50;53.75;;;;;11.34;54.26;101163.03;5059955;28;45329;-52
2022/03/04 04:27:52;;;;;;;;;67.75;52.75;;;;;11.35;54.43;101162.16;5060403;28;45230;-53
2022/03/04 04:30:18;;;;;;;;;67.75;54.25;;;;;11.34;54.21;101159.53;5060236;28;45316;-51
2022/03/04 04:32:43;;;;;;;;;69.00;54.00;;;;;11.32;53.83;101156.94;5060094;28;45475;-53
2022/03/04 04:35:09;;;;;;;;;68.00;54.25;;;;;11.32;54.24;101161.31;5063777;28;46261;-52
2022/03/04 04:37:34;;;;;;;;;63.75;50.25;;;;;11.32;54.12;101164.84;5059935;28;45366;-49
2022/03/04 04:40:00;;;;;;;;;69.50;53.25;;;;;11.29;54.14;101164.00;5059950;28;45318;-51
2022/03/04 04:42:25;;;;;;;;;66.25;52.25;;;;;11.31;54.07;101167.50;5058819;28;45455;-52
2022/03/04 04:44:50;;;;;;;;;67.00;52.50;;;;;11.29;54.07;101167.47;5058530;28;48307;-53
2022/03/04 04:47:16;;;;;;;;;66.25;52.50;;;;;11.31;54.16;101170.13;5060120;28;45366;-51
2022/03/04 04:49:41;;;;;;;;;71.25;54.75;;;;;11.29;54.23;101175.38;5059971;28;45291;-50
2022/03/04 04:52:07;;;;;;;;;66.50;54.00;;;;;11.30;54.25;101171.84;5059970;28;45458;-52
2022/03/04 04:54:34;;;;;;;;;71.50;55.25;;;;;11.31;54.41;101172.75;5059413;28;47401;-50
2022/03/04 04:56:59;;;;;;;;;76.25;59.25;;;;;11.30;54.54;101174.50;5059901;28;45207;-50
2022/03/04 04:59:25;;;;;;;;;66.00;51.50;;;;;11.31;54.38;101168.34;5059814;28;45286;-50
2022/03/04 05:01:50;;;;;;;;;72.50;55.50;;;;;11.32;54.28;101172.72;5059894;28;45249;-53
2022/03/04 05:04:16;;;;;;;;;73.00;54.75;;;;;11.34;54.23;101175.34;5059790;28;45231;-50
2022/03/04 05:06:41;;;;;;;;;68.75;54.00;;;;;11.34;54.27;101175.34;5059836;28;45249;-52
2022/03/04 05:09:07;;;;;;;;;66.50;54.00;;;;;11.33;54.38;101173.59;5059237;28;45766;-52
2022/03/04 05:11:32;;;;;;;;;69.00;53.75;;;;;11.34;54.30;101176.19;5058394;28;45402;-50
2022/03/04 05:13:58;;;;;;;;;68.25;54.00;;;;;11.36;54.30;101178.84;5059386;28;45300;-53
2022/03/04 05:16:23;;;;;;;;;72.50;55.00;;;;;11.34;54.20;101176.19;5059767;28;45343;-53
2022/03/04 05:18:49;;;;;;;;;74.25;55.25;;;;;11.36;54.39;101178.84;5059608;28;45315;-52
2022/03/04 05:21:14;;;;;;;;;71.75;55.75;;;;;11.37;54.48;101183.19;5059417;28;45369;-53
2022/03/04 05:26:23;;;;;;;;;69.75;55.25;;;;;11.35;54.49;101180.56;5059705;28;45307;-53
2022/03/04 05:28:50;;;;;;;;;74.75;56.00;;;;;11.41;54.63;101190.19;5059479;28;45296;-51
2022/03/04 05:31:16;;;;;;;;;69.50;54.00;;;;;11.43;54.49;101193.66;5059433;28;45474;-53
2022/03/04 05:33:41;;;;;;;;;72.25;55.00;;;;;11.44;54.47;101192.75;5062374;28;46185;-49
2022/03/04 05:36:06;;;;;;;;;71.00;55.25;;;;;11.46;54.46;101195.38;5066003;28;45415;-53
2022/03/04 05:38:32;;;;;;;;;72.25;55.75;;;;;11.47;54.71;101191.84;5062628;28;45690;-51
2022/03/04 05:40:57;;;;;;;;;74.00;55.25;;;;;11.49;54.66;101197.97;5061414;28;45483;-50
2022/03/04 05:43:23;;;;;;;;;68.50;54.50;;;;;11.46;54.66;101191.00;5062684;28;46354;-53
2022/03/04 05:45:48;;;;;;;;;74.75;58.50;;;;;11.50;54.49;101199.72;5063064;28;45307;-52
2022/03/04 05:48:13;;;;;;;;;72.25;56.50;;;;;11.52;54.63;101203.19;5062701;28;45771;-49
2022/03/04 05:50:39;;;;;;;;;69.25;54.75;;;;;11.54;54.71;101201.44;5063025;28;45473;-53
2022/03/04 05:53:04;;;;;;;;;69.75;54.75;;;;;11.54;54.67;101212.81;5062174;28;45340;-53
2022/03/04 05:55:29;;;;;;;;;69.75;55.75;;;;;11.56;54.64;101207.56;5062899;28;45221;-51
2022/03/04 05:57:55;;;;;;;;;72.50;55.75;;;;;11.56;54.63;101204.94;5061375;28;45244;-52
2022/03/04 06:00:21;;;;;;;;;68.00;52.50;;;;;11.58;54.66;101204.91;5062651;28;45252;-52
2022/03/04 06:02:47;;;;;;;;;70.50;54.50;;;;;11.58;54.68;101205.78;5062218;28;47041;-53
2022/03/04 06:05:12;;;;;;;;;72.25;55.75;;;;;11.58;54.60;101204.91;5062772;28;45291;-50
2022/03/04 06:07:38;;;;;;;;;70.50;55.25;;;;;11.59;54.86;101211.94;5062053;28;45264;-53
2022/03/04 06:10:04;;;;;;;;;69.50;55.25;;;;;11.61;54.55;101212.75;5062217;28;45184;-53
2022/03/04 06:12:29;;;;;;;;;68.75;54.50;;;;;11.62;54.67;101214.50;5060862;28;47362;-51
2022/03/04 06:14:55;;;;;;;;;71.50;55.25;;;;;11.61;54.56;101211.03;5062528;28;45332;-49
2022/03/04 06:17:21;;;;;;;;;68.75;53.50;;;;;11.63;54.73;101216.25;5078133;27;45315;-51
2022/03/04 06:19:47;;;;;;;;;71.25;55.50;;;;;11.64;54.65;101220.66;5062202;28;45285;-51
2022/03/04 06:22:12;;;;;;;;;71.00;55.00;;;;;11.65;54.62;101222.41;5061990;28;45481;-51
2022/03/04 06:24:37;;;;;;;;;66.75;53.25;;;;;11.65;54.70;101228.50;5062073;28;45379;-52
2022/03/04 06:27:03;;;;;;;;;73.00;53.00;;;;;11.66;54.78;101235.53;5062257;28;45538;-52
2022/03/04 06:29:29;;;;;;;;;70.50;54.50;;;;;11.66;54.70;101235.53;5062091;28;45239;-53
2022/03/04 06:31:54;;;;;;;;;73.50;56.00;;;;;11.66;54.75;101235.53;5061855;28;45450;-52
2022/03/04 06:34:20;;;;;;;;;70.50;55.75;;;;;11.60;54.64;101225.06;5063307;28;45467;-50
2022/03/04 06:36:45;;;;;;;;;69.75;54.00;;;;;11.67;54.50;101239.91;5065238;28;45437;-52
2022/03/04 06:39:10;;;;;;;;;72.75;54.50;;;;;11.68;54.71;101239.03;5060379;28;45817;-53
2022/03/04 06:41:37;;;;;;;;;72.00;56.00;;;;;11.68;54.63;101238.13;5061569;28;45890;-53
2022/03/04 06:44:03;;;;;;;;;72.25;54.50;;;;;11.68;54.75;101230.25;5061417;28;45334;-53
2022/03/04 06:46:29;;;;;;;;;71.00;55.00;;;;;11.70;55.07;101237.22;5060761;28;45320;-54
2022/03/04 06:48:54;;;;;;;;;71.00;54.75;;;;;11.71;54.66;101238.97;5061921;28;45319;-54
2022/03/04 06:51:20;;;;;;;;;74.00;56.00;;;;;11.71;54.61;101241.63;5043646;28;46130;-52
2022/03/04 06:53:45;;;;;;;;;73.00;57.25;;;;;11.73;54.63;101259.16;5060157;28;45420;-53
2022/03/04 06:56:10;;;;;;;;;73.00;55.25;;;;;11.70;54.77;101258.28;5061746;28;45342;-58
2022/03/04 06:58:36;;;;;;;;;74.00;57.75;;;;;11.72;54.64;101255.63;5061969;28;45303;-49
2022/03/04 07:01:02;;;;;;;;;72.75;56.00;;;;;11.72;54.52;101268.81;5061558;28;46025;-53
2022/03/04 07:03:27;;;;;;;;;68.75;52.75;;;;;11.77;54.61;101268.75;5061679;28;45456;-54
2022/03/04 07:05:53;;;;;;;;;74.00;55.75;;;;;11.75;54.70;101265.25;5061682;28;45228;-53
2022/03/04 07:08:18;;;;;;;;;71.75;54.25;;;;;11.76;54.62;101267.00;5059861;28;45335;-54
2022/03/04 07:10:44;;;;;;;;;75.00;59.50;;;;;11.76;54.60;101269.66;5061202;28;45342;-50
2022/03/04 07:13:10;;;;;;;;;66.25;52.50;;;;;11.77;54.90;101271.41;5061548;28;45353;-52
2022/03/04 07:15:36;;;;;;;;;71.00;54.50;;;;;11.78;54.94;101276.63;5061540;28;45193;-50
2022/03/04 07:18:02;;;;;;;;;70.25;54.00;;;;;11.81;54.74;101278.38;5061713;28;45247;-53
2022/03/04 07:20:28;;;;;;;;;72.50;57.25;;;;;11.81;55.09;101274.00;5061278;28;45324;-50
2022/03/04 07:22:53;;;;;;;;;73.00;55.75;;;;;11.76;55.05;101267.91;5061040;28;45386;-53
2022/03/04 07:25:19;;;;;;;;;73.25;56.50;;;;;11.84;54.80;101283.63;5061168;28;45317;-52
2022/03/04 07:27:45;;;;;;;;;69.75;53.50;;;;;11.85;54.76;101288.84;5061209;28;45336;-53
2022/03/04 07:30:16;;;;;;;;;71.00;54.75;;;;;11.85;54.79;101288.00;5061022;28;45354;-51
2022/03/04 07:32:42;;;;;;;;;74.50;57.00;;;;;11.88;54.96;101290.59;5059793;28;45191;-53
2022/03/04 07:35:09;;;;;;;;;67.00;54.00;;;;;11.87;54.78;101287.09;5064811;28;45224;-53
2022/03/04 07:37:36;;;;;;;;;69.25;53.50;;;;;11.91;54.88;101290.56;5059707;28;45502;-53
2022/03/04 07:40:06;;;;;;;;;71.75;56.00;;;;;11.90;54.73;101280.03;5060746;28;45359;-50
2022/03/04 07:42:31;;;;;;;;;72.25;55.00;;;;;11.94;54.78;101287.03;5061239;28;45227;-53
2022/03/04 07:44:57;;;;;;;;;73.50;55.75;;;;;11.95;54.94;101294.00;5061116;28;45352;-50
2022/03/04 07:47:23;;;;;;;;;76.00;62.75;;;;;11.96;55.06;101287.91;5059755;28;45480;-51
2022/03/04 07:49:48;;;;;;;;;74.00;58.50;;;;;11.97;54.84;101294.91;5060561;28;46050;-52
2022/03/04 07:52:13;;;;;;;;;71.00;56.00;;;;;12.00;55.12;101287.84;5060620;28;45459;-54
2022/03/04 07:54:39;;;;;;;;;65.75;53.00;;;;;12.02;55.00;101298.38;5059706;28;45413;-53
2022/03/04 07:57:04;;;;;;;;;71.00;55.50;;;;;12.03;55.10;101297.47;5060849;28;45474;-50
2022/03/04 07:59:30;;;;;;;;;69.75;54.00;;;;;12.06;55.07;101307.09;5059245;28;46389;-51
2022/03/04 08:01:55;;;;;;;;;72.00;56.50;;;;;12.07;54.86;101303.59;5060938;28;45361;-54
2022/03/04 08:04:21;;;;;;;;;69.00;53.75;;;;;12.07;54.84;101298.31;5060782;28;45320;-53
2022/03/04 08:06:46;;;;;;;;;70.00;54.00;;;;;12.10;54.89;101293.91;5060788;28;45386;-52
2022/03/04 08:09:11;;;;;;;;;66.00;53.00;;;;;12.14;55.02;101300.00;5059972;28;45280;-51
2022/03/04 08:11:37;;;;;;;;;66.50;51.50;;;;;12.16;54.71;101298.19;5060411;28;45364;-50
2022/03/04 08:14:02;;;;;;;;;62.25;49.00;;;;;12.18;54.80;101307.84;5060558;28;45886;-51
2022/03/04 08:16:29;;;;;;;;;66.25;51.00;;;;;12.18;54.76;101299.06;5059338;28;45357;-54
2022/03/04 08:18:55;;;;;;;;;59.00;47.00;;;;;12.22;54.96;101306.03;5060482;28;45486;-53
2022/03/04 08:21:21;;;;;;;;;66.75;50.50;;;;;12.26;55.07;101314.78;5060474;28;45266;-52
2022/03/04 08:23:46;;;;;;;;;67.25;53.00;;;;;12.27;54.88;101309.47;5060241;28;45243;-53
2022/03/04 08:26:12;;;;;;;;;66.00;51.00;;;;;12.29;54.89;101310.34;5059034;28;45181;-51
2022/03/04 08:28:37;;;;;;;;;65.00;52.00;;;;;12.32;54.81;101318.19;5060108;28;46265;-54
2022/03/04 08:31:10;;;;;;;;;66.75;52.75;;;;;12.33;54.72;101319.09;5060429;28;45207;-52
2022/03/04 08:33:36;;;;;;;;;70.50;55.25;;;;;12.39;54.83;101323.41;5060157;28;45403;-49
2022/03/04 08:36:03;;;;;;;;;63.50;51.00;;;;;12.39;54.94;101319.03;5064937;28;45220;-51
2022/03/04 08:38:29;;;;;;;;;66.50;53.25;;;;;12.43;54.75;101323.34;5059651;28;46185;-51
2022/03/04 08:40:54;;;;;;;;;69.50;54.75;;;;;12.47;54.75;101329.47;5060004;28;45346;-53
2022/03/04 08:43:20;;;;;;;;;68.50;54.00;;;;;12.48;54.81;101332.06;5060268;28;45245;-49
2022/03/04 08:45:46;;;;;;;;;66.25;52.50;;;;;12.51;54.73;101325.88;5060196;28;45311;-50
2022/03/04 08:48:12;;;;;;;;;67.00;53.00;;;;;12.55;54.90;101338.13;5059847;28;46302;-54
2022/03/04 08:50:37;;;;;;;;;64.25;53.00;;;;;12.56;54.75;101334.59;5059968;28;45267;-51
2022/03/04 08:53:03;;;;;;;;;70.00;53.75;;;;;12.60;54.74;101343.34;5059618;28;45387;-50
2022/03/04 08:55:30;;;;;;;;;64.00;49.25;;;;;12.62;54.66;101338.94;5059978;28;45544;-51
2022/03/04 08:57:57;;;;;;;;;64.25;53.25;;;;;12.64;55.07;101338.03;5059702;28;46358;-54
2022/03/04 09:00:23;;;;;;;;;66.25;51.00;;;;;12.65;54.78;101334.50;5060067;28;45259;-50
2022/03/04 09:02:48;;;;;;;;;65.75;52.00;;;;;12.71;54.76;101343.22;5059912;28;45237;-51
2022/03/04 09:05:13;;;;;;;;;70.00;55.50;;;;;12.74;54.88;101343.16;5041895;28;45379;-50
2022/03/04 09:07:39;;;;;;;;;64.25;52.75;;;;;12.76;54.74;101341.38;5058947;28;45360;-51
2022/03/04 09:10:05;;;;;;;;;65.00;51.25;;;;;12.78;54.53;101343.13;5058300;28;45394;-50
2022/03/04 09:12:31;;;;;;;;;68.75;53.25;;;;;12.80;54.97;101343.09;5059656;28;46357;-49
2022/03/04 09:14:57;;;;;;;;;67.50;53.00;;;;;12.82;54.55;101344.81;5059895;28;45445;-52
2022/03/04 09:17:23;;;;;;;;;68.00;51.75;;;;;12.83;54.70;101337.78;5058136;28;48143;-50
2022/03/04 09:19:48;;;;;;;;;68.00;53.25;;;;;12.89;54.98;101348.22;5059668;28;45387;-53
2022/03/04 09:22:14;;;;;;;;;67.75;52.50;;;;;12.90;54.84;101333.28;5059567;28;45229;-50
2022/03/04 09:24:40;;;;;;;;;69.25;53.25;;;;;12.94;54.79;101346.41;5059811;28;45197;-51
2022/03/04 09:27:06;;;;;;;;;69.25;51.75;;;;;12.98;54.54;101352.50;5059376;28;46623;-52
2022/03/04 09:29:32;;;;;;;;;69.00;54.25;;;;;13.01;54.69;101347.19;5058061;28;45256;-50
2022/03/04 09:31:58;;;;;;;;;66.00;51.50;;;;;13.06;54.64;101352.41;5059530;28;45387;-53
2022/03/04 09:34:23;;;;;;;;;65.75;50.00;;;;;13.09;54.67;101345.28;5042738;28;45411;-54
2022/03/04 09:36:48;;;;;;;;;73.00;55.75;;;;;13.13;54.61;101343.47;5061025;28;45321;-53
2022/03/04 09:39:14;;;;;;;;;69.00;52.50;;;;;13.17;54.65;101351.34;5057771;28;45353;-54
2022/03/04 09:41:40;;;;;;;;;64.75;51.25;;;;;13.19;54.67;101340.75;5059388;28;45470;-51
2022/03/04 09:44:08;;;;;;;;;64.00;51.25;;;;;13.25;54.56;101345.94;5058184;28;46119;-52
2022/03/04 09:46:33;;;;;;;;;71.75;56.00;;;;;13.30;54.50;101348.50;5059104;28;46338;-53
2022/03/04 09:48:59;;;;;;;;;69.75;54.50;;;;;13.31;54.56;101347.63;5059379;28;45263;-50
2022/03/04 09:51:24;;;;;;;;;64.00;49.75;;;;;13.40;54.43;101344.00;5059389;28;45879;-50
2022/03/04 09:53:52;;;;;;;;;67.00;53.25;;;;;13.43;54.31;101344.81;5058868;28;45217;-50
2022/03/04 09:56:19;;;;;;;;;67.75;52.75;;;;;13.48;54.50;101350.00;5057643;28;46525;-54
2022/03/04 09:58:45;;;;;;;;;65.25;52.25;;;;;13.52;54.53;101346.44;5058017;28;45920;-52
2022/03/04 10:01:12;;;;;;;;;68.50;52.00;;;;;13.58;54.73;101353.38;5057834;28;45364;-52
2022/03/04 10:03:42;;;;;;;;;72.50;55.25;;;;;13.63;54.67;101346.22;5057807;28;45423;-50
2022/03/04 10:06:07;;;;;;;;;70.00;56.25;;;;;13.64;54.43;101351.47;5058925;28;45363;-54
2022/03/04 10:08:41;;;;;;;;;65.75;52.75;;;;;13.71;54.37;101348.72;5058708;28;45267;-52
2022/03/04 10:11:07;;;;;;;;;71.50;56.50;;;;;13.73;54.64;101346.94;5057438;28;45241;-51
2022/03/04 10:13:53;;;;;;;;;69.50;53.00;;;;;13.80;54.71;101354.72;5059051;28;45216;-52
2022/03/04 10:16:32;;;;;;;;;71.00;55.25;;;;;13.83;54.58;101353.81;5057907;28;45396;-52
2022/03/04 10:19:13;;;;;;;;;68.00;55.50;;;;;13.88;54.79;101354.59;5059635;28;46432;-53
2022/03/04 10:21:48;;;;;;;;;69.75;53.75;;;;;13.92;54.41;101351.03;5062509;28;45419;-52
2022/03/04 10:24:16;;;;;;;;;71.50;58.50;;;;;13.96;54.67;101352.69;5062064;28;45569;-54
2022/03/04 10:26:42;;;;;;;;;68.75;54.50;;;;;14.00;54.33;101360.53;5062184;28;46150;-50
2022/03/04 10:29:26;;;;;;;;;71.75;57.00;;;;;14.03;54.13;101349.94;5060851;28;45339;-54
2022/03/04 10:32:19;;;;;;;;;69.25;55.25;;;;;14.07;54.52;101348.97;5062236;28;45307;-53
2022/03/04 10:34:44;;;;;;;;;68.50;53.00;;;;;14.09;54.37;101353.31;5064388;28;45483;-53
2022/03/04 10:37:10;;;;;;;;;69.75;53.75;;;;;14.12;54.37;101355.94;5061736;28;46107;-54
2022/03/04 10:39:35;;;;;;;;;69.00;53.00;;;;;14.17;54.36;101357.59;5060490;28;45306;-52
2022/03/04 10:42:01;;;;;;;;;66.75;52.25;;;;;14.19;54.27;101361.97;5062075;28;45274;-52
2022/03/04 10:44:27;;;;;;;;;73.25;55.25;;;;;14.23;54.33;101358.34;5061820;28;45264;-54
2022/03/04 10:46:57;;;;;;;;;71.00;54.00;;;;;14.27;53.88;101367.09;5060595;28;46464;-52
2022/03/04 10:49:24;;;;;;;;;69.50;53.50;;;;;14.29;53.83;101358.22;5061766;28;45331;-53
2022/03/04 10:51:50;;;;;;;;;68.75;53.75;;;;;14.33;54.17;101363.47;5062220;28;45394;-49
2022/03/04 10:54:17;;;;;;;;;69.50;54.25;;;;;14.32;53.91;101346.72;5061313;28;45478;-52
2022/03/04 10:56:55;;;;;;;;;71.50;54.00;;;;;14.37;53.75;101358.06;5061705;28;46331;-53
2022/03/04 10:59:24;;;;;;;;;70.00;56.50;;;;;14.39;54.12;101353.63;5060306;28;45286;-53
2022/03/04 11:01:51;;;;;;;;;71.25;53.25;;;;;14.41;54.10;101356.22;5062021;28;45396;-54
2022/03/04 11:04:19;;;;;;;;;69.75;57.75;;;;;14.45;54.19;101355.25;5061565;28;45342;-50
2022/03/04 11:06:47;;;;;;;;;68.75;58.00;;;;;14.47;53.92;101351.69;5060284;28;45608;-50